Time;durP1;ratioP1;P1;durP2;ratioP2;P2;SDS_P1;SDS_P2;PMS_P1;PMS_P2;Temp;Humidity;BMP_temperature;BMP_pressure;BME280_temperature;BME280_humidity;BME280_pressure;Samples;Min_cycle;Max_cycle;Signal;HPM_P1;HPM_P2
2024/03/07 00:00:21;;;;;;;28.70;24.67;;;;;;;9.58;74.47;94387.06;4207075;28;20131;-69
2024/03/07 00:02:23;;;;;;;30.67;25.08;;;;;;;9.45;74.54;94389.31;4200701;28;20048;-70
2024/03/07 00:04:25;;;;;;;28.58;24.92;;;;;;;9.32;75.40;94392.41;4206605;28;20698;-69
2024/03/07 00:06:27;;;;;;;28.35;25.45;;;;;;;9.26;75.85;94391.22;4208062;28;20444;-70
2024/03/07 00:08:30;;;;;;;28.15;24.80;;;;;;;9.30;76.23;94384.69;4210257;28;20059;-70
2024/03/07 00:10:32;;;;;;;27.40;24.52;;;;;;;9.40;76.29;94387.19;4210537;28;20052;-72
2024/03/07 00:12:35;;;;;;;27.95;24.60;;;;;;;9.46;75.35;94380.50;4185355;28;20060;-70
2024/03/07 00:14:37;;;;;;;27.35;24.48;;;;;;;9.50;75.50;94376.59;4209092;28;20048;-69
2024/03/07 00:16:40;;;;;;;29.02;25.85;;;;;;;9.48;75.63;94374.13;4209947;28;20040;-68
2024/03/07 00:18:41;;;;;;;29.95;25.45;;;;;;;9.47;75.15;94371.69;4216440;28;20449;-71
2024/03/07 00:20:43;;;;;;;29.15;25.55;;;;;;;9.45;75.52;94371.84;4215157;28;20044;-70
2024/03/07 00:22:45;;;;;;;31.20;26.25;;;;;;;9.42;75.99;94369.53;4191903;28;20509;-69
2024/03/07 00:24:47;;;;;;;29.25;26.00;;;;;;;9.21;75.74;94372.59;4203877;28;20052;-69
2024/03/07 00:26:51;;;;;;;30.35;26.90;;;;;;;9.13;76.07;94372.56;4207565;28;20124;-70
2024/03/07 00:28:52;;;;;;;29.92;26.83;;;;;;;9.06;76.78;94369.75;4208187;28;20110;-69
2024/03/07 00:30:55;;;;;;;30.65;27.33;;;;;;;9.08;76.89;94366.97;4197133;28;20052;-68
2024/03/07 00:32:57;;;;;;;29.05;25.98;;;;;;;9.09;77.16;94368.63;4198443;28;20052;-69
2024/03/07 00:34:59;;;;;;;29.05;25.85;;;;;;;9.07;77.24;94375.81;4210143;28;20150;-70
2024/03/07 00:37:02;;;;;;;29.55;26.30;;;;;;;9.11;78.11;94361.44;4187670;28;20131;-67
2024/03/07 00:39:04;;;;;;;28.55;25.35;;;;;;;9.11;77.27;94366.66;4206001;28;20052;-70
2024/03/07 00:41:06;;;;;;;28.45;25.35;;;;;;;9.08;77.25;94374.81;4203295;28;20074;-68
2024/03/07 00:43:07;;;;;;;27.48;24.67;;;;;;;9.15;77.21;94362.78;4197175;28;20048;-68
2024/03/07 00:45:09;;;;;;;28.58;25.67;;;;;;;9.20;77.58;94369.13;4203925;28;20665;-70
2024/03/07 00:47:11;;;;;;;28.00;25.10;;;;;;;9.26;77.38;94369.50;4205000;28;20054;-69
2024/03/07 00:49:13;;;;;;;29.00;26.00;;;;;;;9.26;77.04;94370.31;4207270;28;20425;-68
2024/03/07 00:51:15;;;;;;;27.08;24.23;;;;;;;9.27;77.02;94371.13;4214797;28;20141;-69
2024/03/07 00:53:17;;;;;;;29.13;24.60;;;;;;;9.31;76.65;94362.00;4207237;28;20219;-68
2024/03/07 00:55:19;;;;;;;26.40;23.65;;;;;;;9.31;76.33;94357.56;4199332;28;20052;-68
2024/03/07 00:57:21;;;;;;;27.35;24.42;;;;;;;9.30;76.07;94355.13;4209258;28;20080;-69
2024/03/07 00:59:23;;;;;;;25.98;23.17;;;;;;;9.28;76.41;94354.47;4202428;28;20379;-68
2024/03/07 01:01:24;;;;;;;26.73;23.05;;;;;;;9.30;76.42;94345.50;4206875;28;20124;-68
2024/03/07 01:03:26;;;;;;;26.45;22.70;;;;;;;9.30;76.75;94342.88;4200434;28;20405;-70
2024/03/07 01:05:29;;;;;;;26.40;23.60;;;;;;;9.32;76.13;94343.53;4197082;28;20089;-70
2024/03/07 01:07:31;;;;;;;27.92;23.17;;;;;;;9.33;76.32;94344.34;4215177;28;20072;-67
2024/03/07 01:09:35;;;;;;;28.83;22.20;;;;;;;9.41;76.74;94331.31;4209452;28;20068;-70
2024/03/07 01:11:37;;;;;;;24.08;21.15;;;;;;;9.42;76.64;94333.75;4199940;28;20121;-68
2024/03/07 01:13:39;;;;;;;25.23;22.52;;;;;;;9.41;76.33;94337.34;4199683;28;20568;-69
2024/03/07 01:15:41;;;;;;;22.75;20.45;;;;;;;9.36;75.72;94339.63;4183131;28;20052;-69
2024/03/07 01:17:44;;;;;;;22.75;20.55;;;;;;;9.32;75.64;94337.50;4193808;28;20052;-68
2024/03/07 01:19:46;;;;;;;22.98;20.55;;;;;;;9.34;76.32;94333.75;4193630;28;20506;-69
2024/03/07 01:21:48;;;;;;;22.88;20.05;;;;;;;9.35;76.53;94331.94;4208674;28;20060;-70
2024/03/07 01:23:50;;;;;;;23.67;20.35;;;;;;;9.35;76.26;94334.56;4204920;28;20052;-70
2024/03/07 01:25:52;;;;;;;23.52;21.05;;;;;;;9.38;76.33;94337.69;4202329;28;20044;-70
2024/03/07 01:27:55;;;;;;;21.75;19.35;;;;;;;9.38;75.79;94339.47;4204644;28;20067;-69
2024/03/07 01:29:57;;;;;;;22.45;20.17;;;;;;;9.36;75.71;94334.41;4200955;28;20049;-70
2024/03/07 01:31:59;;;;;;;24.10;19.95;;;;;;;9.34;75.51;94336.34;4203204;28;20051;-68
2024/03/07 01:34:01;;;;;;;23.23;20.67;;;;;;;9.32;76.14;94332.28;4201443;28;20066;-70
2024/03/07 01:36:05;;;;;;;21.77;19.48;;;;;;;9.31;75.48;94333.22;4205938;28;20203;-68
2024/03/07 01:38:08;;;;;;;22.75;20.35;;;;;;;9.24;76.60;94327.84;4207276;28;20071;-67
2024/03/07 01:40:11;;;;;;;22.13;19.17;;;;;;;9.22;76.26;94314.91;4203040;28;20135;-67
2024/03/07 01:42:13;;;;;;;23.15;20.65;;;;;;;9.20;76.06;94313.44;4202603;28;20058;-68
2024/03/07 01:44:14;;;;;;;22.17;19.65;;;;;;;9.17;76.65;94319.81;4209283;28;20101;-69
2024/03/07 01:46:16;;;;;;;22.08;19.67;;;;;;;9.16;77.10;94322.56;4201389;28;20044;-69
2024/03/07 01:48:25;;;;;;;21.65;19.40;;;;;;;9.17;76.68;94325.03;4215735;28;20109;-69
2024/03/07 01:50:30;;;;;;;22.40;18.85;;;;;;;9.13;75.82;94323.72;4186613;28;20049;-66
2024/03/07 01:52:32;;;;;;;22.13;19.75;;;;;;;9.08;75.59;94330.38;4207918;28;20072;-70
2024/03/07 01:54:35;;;;;;;22.17;19.77;;;;;;;8.85;76.42;94330.16;4196945;28;20062;-69
2024/03/07 01:56:38;;;;;;;23.27;19.27;;;;;;;8.46;77.46;94347.13;4205872;28;20135;-69
2024/03/07 01:58:40;;;;;;;21.83;19.52;;;;;;;8.42;77.74;94348.41;4187602;28;20744;-69
2024/03/07 02:00:43;;;;;;;22.23;19.80;;;;;;;8.23;78.04;94344.16;4184915;28;20144;-68
2024/03/07 02:02:46;;;;;;;22.40;20.02;;;;;;;8.11;78.95;94343.63;4197120;28;20049;-68
2024/03/07 02:04:48;;;;;;;21.77;19.48;;;;;;;8.11;79.57;94343.63;4200075;28;20091;-68
2024/03/07 02:06:53;;;;;;;24.73;20.92;;;;;;;8.05;79.22;94338.19;4184199;28;20394;-69
2024/03/07 02:08:54;;;;;;;23.88;21.10;;;;;;;8.08;79.99;94338.69;4201660;28;20458;-68
2024/03/07 02:11:00;;;;;;;22.63;20.33;;;;;;;7.92;80.03;94333.38;4191157;28;20084;-70
2024/03/07 02:13:02;;;;;;;23.35;20.95;;;;;;;7.84;79.54;94334.13;4196673;28;20119;-70
2024/03/07 02:15:04;;;;;;;22.23;19.75;;;;;;;7.94;80.44;94336.66;4210049;28;20059;-68
2024/03/07 02:17:07;;;;;;;25.45;22.75;;;;;;;7.86;80.19;94331.38;4198353;28;20058;-70
2024/03/07 02:19:14;;;;;;;23.50;21.17;;;;;;;7.91;81.38;94327.31;4205508;28;20048;-69
2024/03/07 02:21:16;;;;;;;23.63;21.17;;;;;;;8.03;81.35;94314.03;4201057;28;20052;-69
2024/03/07 02:23:18;;;;;;;23.23;20.75;;;;;;;8.08;80.61;94311.78;4197310;28;20120;-70
2024/03/07 02:25:20;;;;;;;23.38;20.85;;;;;;;8.14;80.67;94313.78;4204642;28;20227;-69
2024/03/07 02:27:22;;;;;;;22.83;20.55;;;;;;;8.18;80.74;94313.31;4208067;28;20419;-68
2024/03/07 02:29:25;;;;;;;23.38;20.90;;;;;;;8.27;80.11;94316.78;4196307;28;20048;-69
2024/03/07 02:31:34;;;;;;;23.77;21.20;;;;;;;8.35;79.85;94316.84;4182113;28;20489;-68
2024/03/07 02:33:36;;;;;;;23.38;20.88;;;;;;;8.44;80.12;94324.75;4209313;28;20319;-68
2024/03/07 02:35:38;;;;;;;23.15;20.70;;;;;;;8.55;79.88;94327.91;4210681;28;20051;-67
2024/03/07 02:37:40;;;;;;;22.98;20.02;;;;;;;8.57;79.18;94328.56;4211595;28;20118;-68
2024/03/07 02:39:43;;;;;;;22.92;19.92;;;;;;;8.52;78.74;94330.84;4191461;28;20127;-68
2024/03/07 02:41:45;;;;;;;21.30;19.05;;;;;;;8.34;77.44;94340.47;4173044;28;20056;-68
2024/03/07 02:43:49;;;;;;;21.27;18.92;;;;;;;8.23;78.19;94336.34;4203036;28;20046;-68
2024/03/07 02:45:51;;;;;;;19.17;17.17;;;;;;;8.10;79.17;94336.75;4218164;28;20048;-68
2024/03/07 02:47:53;;;;;;;19.67;17.58;;;;;;;8.00;79.03;94334.25;4166877;28;20432;-69
2024/03/07 02:49:56;;;;;;;16.38;14.68;;;;;;;7.99;78.97;94329.16;4204194;28;20056;-68
2024/03/07 02:51:58;;;;;;;13.88;11.73;;;;;;;7.71;78.29;94328.47;4203876;28;20049;-68
2024/03/07 02:54:00;;;;;;;12.38;11.18;;;;;;;7.56;78.65;94333.41;4208314;28;20040;-69
2024/03/07 02:56:02;;;;;;;12.80;11.40;;;;;;;7.59;78.73;94338.28;4203762;28;20048;-69
2024/03/07 02:58:05;;;;;;;9.15;8.13;;;;;;;7.42;78.59;94339.97;4180715;28;20437;-69
2024/03/07 03:00:19;;;;;;;7.95;7.10;;;;;;;7.29;78.46;94342.09;4204570;28;20048;-69
2024/03/07 03:02:22;;;;;;;7.82;7.03;;;;;;;7.26;79.23;94342.41;4202941;28;20084;-69
2024/03/07 03:04:24;;;;;;;6.93;6.22;;;;;;;7.20;78.81;94342.97;4201386;28;20461;-68
2024/03/07 03:06:26;;;;;;;5.30;4.55;;;;;;;7.02;78.93;94348.97;4190795;28;20076;-68
2024/03/07 03:08:28;;;;;;;5.40;4.18;;;;;;;6.95;78.99;94343.53;4197291;28;20048;-69
2024/03/07 03:10:30;;;;;;;4.97;4.30;;;;;;;6.95;79.49;94338.34;4207594;28;20135;-68
2024/03/07 03:12:32;;;;;;;5.38;4.40;;;;;;;7.07;79.51;94335.50;4200936;28;20147;-69
2024/03/07 03:14:34;;;;;;;4.50;4.03;;;;;;;7.26;79.48;94326.75;4210888;28;20454;-68
2024/03/07 03:16:36;;;;;;;4.25;3.63;;;;;;;7.33;78.87;94336.44;4204618;28;20077;-67
2024/03/07 03:18:49;;;;;;;4.82;3.35;;;;;;;7.30;79.04;94349.75;4199719;28;20052;-69
2024/03/07 03:20:52;;;;;;;4.13;3.45;;;;;;;7.35;78.47;94347.53;4192931;28;20194;-70
2024/03/07 03:22:54;;;;;;;4.03;3.13;;;;;;;7.49;79.14;94348.81;4210570;28;20048;-69
2024/03/07 03:24:59;;;;;;;3.30;2.88;;;;;;;7.58;78.29;94347.91;4206829;28;20442;-68
2024/03/07 03:27:01;;;;;;;3.90;3.40;;;;;;;7.67;77.76;94348.81;4199592;28;20052;-68
2024/03/07 03:29:03;;;;;;;4.50;3.97;;;;;;;7.78;76.99;94347.75;4199476;28;20056;-70
2024/03/07 03:31:05;;;;;;;4.57;3.67;;;;;;;7.61;76.92;94346.78;4206787;28;20040;-68
2024/03/07 03:33:09;;;;;;;4.78;3.70;;;;;;;7.52;77.54;94352.91;4208700;28;20047;-69
2024/03/07 03:35:13;;;;;;;5.60;4.80;;;;;;;7.44;77.84;94364.06;4208102;28;20062;-70
2024/03/07 03:37:15;;;;;;;6.55;4.32;;;;;;;7.50;78.65;94371.28;4205423;28;20132;-69
2024/03/07 03:39:20;;;;;;;4.82;4.32;;;;;;;7.63;79.34;94372.72;4205647;28;20048;-69
2024/03/07 03:41:23;;;;;;;6.00;5.20;;;;;;;7.76;78.49;94363.53;4206270;28;20486;-67
2024/03/07 03:43:25;;;;;;;6.50;4.97;;;;;;;7.87;78.63;94352.09;4193421;28;20091;-69
2024/03/07 03:45:27;;;;;;;5.47;4.15;;;;;;;7.98;78.28;94343.19;4209707;28;20179;-68
2024/03/07 03:47:29;;;;;;;4.65;3.95;;;;;;;8.03;77.42;94335.72;4203995;28;20049;-67
2024/03/07 03:49:31;;;;;;;4.80;4.05;;;;;;;8.04;76.91;94337.34;4178916;28;20057;-70
2024/03/07 03:51:33;;;;;;;4.53;3.58;;;;;;;8.06;76.45;94335.41;4198394;28;20074;-69
2024/03/07 03:53:36;;;;;;;4.55;4.13;;;;;;;8.11;76.50;94332.34;4197255;28;20060;-68
2024/03/07 03:55:39;;;;;;;5.47;4.68;;;;;;;7.90;76.51;94332.69;4204602;28;20059;-70
2024/03/07 03:57:42;;;;;;;5.80;4.53;;;;;;;7.83;77.24;94334.25;4183789;28;20105;-69
2024/03/07 03:59:44;;;;;;;6.40;5.78;;;;;;;7.86;77.18;94334.78;4191515;28;20048;-68
2024/03/07 04:01:48;;;;;;;7.53;5.85;;;;;;;7.94;77.11;94336.66;4197754;28;20040;-68
2024/03/07 04:03:50;;;;;;;9.32;6.32;;;;;;;8.00;77.32;94336.84;4210312;28;20050;-69
2024/03/07 04:05:52;;;;;;;6.70;6.00;;;;;;;8.08;77.42;94338.69;4217903;28;20058;-67
2024/03/07 04:07:55;;;;;;;8.07;6.95;;;;;;;8.19;77.11;94330.63;4203898;28;20067;-68
2024/03/07 04:10:02;;;;;;;8.32;6.05;;;;;;;8.27;77.16;94332.44;4202854;28;20078;-68
2024/03/07 04:12:05;;;;;;;6.25;5.25;;;;;;;8.32;76.50;94340.63;4183539;28;20102;-69
2024/03/07 04:14:08;;;;;;;4.63;4.22;;;;;;;8.31;75.50;94348.63;4207870;28;20489;-71
2024/03/07 04:16:09;;;;;;;4.38;3.83;;;;;;;8.33;75.50;94349.31;4201271;28;20251;-69
2024/03/07 04:18:11;;;;;;;4.60;4.07;;;;;;;8.32;75.31;94347.66;4196192;28;20084;-67
2024/03/07 04:20:13;;;;;;;5.00;4.13;;;;;;;8.30;75.50;94352.19;4199470;28;20150;-68
2024/03/07 04:22:15;;;;;;;4.47;3.65;;;;;;;8.32;75.75;94350.25;4206661;28;20260;-71
2024/03/07 04:24:17;;;;;;;4.97;3.85;;;;;;;8.35;75.97;94358.59;4196742;28;20056;-71
2024/03/07 04:26:19;;;;;;;4.38;3.50;;;;;;;8.35;75.49;94349.97;4196316;28;20383;-68
2024/03/07 04:28:22;;;;;;;5.38;3.42;;;;;;;8.34;74.68;94343.09;4209009;28;20051;-69
2024/03/07 04:30:23;;;;;;;5.25;3.72;;;;;;;8.37;75.58;94340.19;4209510;28;20391;-69
2024/03/07 04:32:25;;;;;;;5.18;4.25;;;;;;;8.38;75.38;94340.00;4208741;28;20044;-69
2024/03/07 04:34:30;;;;;;;6.43;5.72;;;;;;;8.31;74.82;94346.84;4209973;28;20042;-70
2024/03/07 04:36:32;;;;;;;5.40;4.90;;;;;;;8.18;75.42;94352.47;4199458;28;20379;-69
2024/03/07 04:38:34;;;;;;;6.82;5.13;;;;;;;8.12;75.61;94345.25;4198485;28;20052;-67
2024/03/07 04:40:36;;;;;;;6.57;5.40;;;;;;;8.10;75.48;94339.34;4197474;28;20043;-69
2024/03/07 04:42:37;;;;;;;7.93;5.45;;;;;;;8.12;76.42;94340.03;4198382;28;20044;-68
2024/03/07 04:44:40;;;;;;;5.05;3.90;;;;;;;8.04;75.83;94337.34;4199019;28;20470;-69
2024/03/07 04:46:44;;;;;;;4.35;3.58;;;;;;;7.75;76.33;94343.66;4190646;28;20293;-69
2024/03/07 04:48:45;;;;;;;;;;;;;;;7.63;76.70;94342.25;4178450;28;20056;-68
2024/03/07 04:50:47;;;;;;;4.13;3.03;;;;;;;7.54;76.40;94338.75;4204768;28;20372;-70
2024/03/07 04:52:49;;;;;;;3.33;2.72;;;;;;;7.44;77.43;94345.81;4200038;28;20150;-67
2024/03/07 04:54:51;;;;;;;3.33;2.60;;;;;;;7.07;78.19;94354.56;4196700;28;20193;-70
2024/03/07 04:56:54;;;;;;;3.42;2.67;;;;;;;7.10;78.70;94353.47;4205418;28;20060;-67
2024/03/07 04:58:55;;;;;;;4.55;2.90;;;;;;;7.22;78.10;94351.47;4207124;28;20490;-70
2024/03/07 05:00:58;;;;;;;3.08;2.35;;;;;;;7.33;77.39;94359.88;4181555;28;20041;-69
2024/03/07 05:03:00;;;;;;;2.63;2.00;;;;;;;7.38;77.14;94362.06;4209315;28;20075;-69
2024/03/07 05:05:01;;;;;;;2.85;1.88;;;;;;;7.41;75.33;94363.56;4208721;28;20309;-68
2024/03/07 05:07:03;;;;;;;3.03;2.17;;;;;;;7.46;75.84;94363.91;4200449;28;20510;-71
2024/03/07 05:09:07;;;;;;;3.50;1.90;;;;;;;7.48;75.42;94362.78;4206179;28;20406;-68
2024/03/07 05:11:08;;;;;;;4.22;1.75;;;;;;;7.57;75.47;94364.53;4190134;28;20044;-72
2024/03/07 05:13:10;;;;;;;2.47;1.55;;;;;;;7.60;74.58;94366.03;4195855;28;20131;-69
2024/03/07 05:15:12;;;;;;;2.80;1.77;;;;;;;7.62;73.69;94360.66;4200207;28;20066;-70
2024/03/07 05:17:14;;;;;;;3.28;1.90;;;;;;;7.65;73.73;94361.16;4190821;28;20134;-68
2024/03/07 05:19:16;;;;;;;2.05;1.50;;;;;;;7.68;73.70;94358.28;4207941;28;20139;-69
2024/03/07 05:23:35;;;;;;;2.50;1.73;;;;;;;7.73;72.47;94368.25;4199040;28;20102;-70
2024/03/07 05:25:39;;;;;;;2.40;1.83;;;;;;;7.78;72.82;94366.81;4206096;28;20068;-69
2024/03/07 05:27:42;;;;;;;3.63;2.08;;;;;;;7.79;73.32;94372.88;4195085;28;20044;-71
2024/03/07 05:29:43;;;;;;;3.40;2.20;;;;;;;7.75;72.35;94382.78;4195668;28;20044;-71
2024/03/07 05:31:48;;;;;;;3.17;2.38;;;;;;;7.70;71.74;94382.41;4198788;28;20664;-70
2024/03/07 05:33:50;;;;;;;2.88;2.20;;;;;;;7.69;72.57;94380.75;4193548;28;20043;-69
2024/03/07 05:36:02;;;;;;;2.90;2.10;;;;;;;7.72;72.33;94380.47;4206855;28;20441;-69
2024/03/07 05:38:04;;;;;;;5.93;2.47;;;;;;;7.73;72.29;94376.88;4199727;28;20161;-70
2024/03/07 05:40:09;;;;;;;3.50;2.22;;;;;;;7.69;72.65;94375.53;4191092;28;20059;-69
2024/03/07 05:42:13;;;;;;;3.78;2.30;;;;;;;7.57;72.65;94377.56;4200348;28;20063;-68
2024/03/07 05:44:15;;;;;;;5.75;3.00;;;;;;;7.55;72.80;94379.50;4194967;28;20051;-70
2024/03/07 05:46:17;;;;;;;4.15;3.00;;;;;;;7.59;73.63;94378.25;4203617;28;20049;-68
2024/03/07 05:48:19;;;;;;;3.00;2.70;;;;;;;7.63;72.64;94377.94;4200805;28;20052;-70
2024/03/07 05:50:21;;;;;;;4.05;3.20;;;;;;;7.48;72.97;94382.84;4194789;28;20048;-68
2024/03/07 05:52:23;;;;;;;4.00;3.38;;;;;;;7.27;73.73;94386.56;4197531;28;20055;-69
2024/03/07 05:54:25;;;;;;;4.63;3.75;;;;;;;7.20;74.30;94388.06;4206097;28;20111;-69
2024/03/07 05:56:27;;;;;;;7.93;4.75;;;;;;;6.88;74.97;94391.97;4197977;28;20264;-71
2024/03/07 05:58:29;;;;;;;5.85;4.25;;;;;;;6.79;75.41;94392.00;4206136;28;20048;-73
2024/03/07 06:00:34;;;;;;;5.47;4.50;;;;;;;6.80;76.12;94396.22;4207412;28;20459;-69
2024/03/07 06:02:37;;;;;;;6.72;5.03;;;;;;;6.94;76.33;94393.97;4202099;28;20108;-71
2024/03/07 06:04:39;;;;;;;6.10;4.03;;;;;;;7.07;75.78;94398.84;4208595;28;20117;-70
2024/03/07 06:06:41;;;;;;;7.25;4.57;;;;;;;7.11;74.82;94404.59;4188975;28;20057;-69
2024/03/07 06:08:44;;;;;;;5.22;4.22;;;;;;;7.17;75.08;94404.81;4211353;28;20052;-72
2024/03/07 06:10:47;;;;;;;5.57;4.35;;;;;;;7.14;74.27;94404.28;4204744;28;20051;-69
2024/03/07 06:12:49;;;;;;;5.75;4.30;;;;;;;7.10;74.50;94403.78;4204810;28;20422;-69
2024/03/07 06:15:10;;;;;;;5.75;4.55;;;;;;;7.07;73.89;94401.44;4208238;28;20566;-69
2024/03/07 06:17:11;;;;;;;8.00;5.88;;;;;;;7.11;74.24;94415.00;4213664;28;20404;-69
2024/03/07 06:19:13;;;;;;;7.03;4.13;;;;;;;7.08;73.76;94423.94;4210869;28;20087;-70
2024/03/07 06:21:15;;;;;;;7.47;4.32;;;;;;;7.08;73.39;94423.94;4198656;28;20060;-67
2024/03/07 06:23:18;;;;;;;4.97;3.90;;;;;;;7.13;73.44;94426.91;4214578;28;20139;-71
2024/03/07 06:25:34;;;;;;;6.82;3.97;;;;;;;7.08;73.30;94428.34;4206089;28;20131;-68
2024/03/07 06:27:38;;;;;;;6.28;4.50;;;;;;;6.91;73.74;94425.50;4208856;28;20048;-73
2024/03/07 06:29:39;;;;;;;5.40;4.13;;;;;;;6.61;74.41;94425.78;4201958;28;20144;-72
2024/03/07 06:31:42;;;;;;;4.80;3.65;;;;;;;6.45;75.26;94419.34;4197048;28;20525;-72
2024/03/07 06:34:02;;;;;;;8.35;4.07;;;;;;;6.55;75.89;94419.34;4179814;28;20052;-69
2024/03/07 06:36:04;;;;;;;5.35;4.53;;;;;;;6.82;76.65;94418.56;4207615;28;20060;-70
2024/03/07 06:38:10;;;;;;;6.13;4.50;;;;;;;7.10;75.90;94416.00;4181850;28;20063;-70
2024/03/07 06:40:14;;;;;;;7.00;4.00;;;;;;;7.17;74.40;94410.03;4207375;28;20508;-69
2024/03/07 06:42:16;;;;;;;5.95;4.85;;;;;;;7.22;74.47;94408.78;4209028;28;20512;-71
2024/03/07 06:44:23;;;;;;;7.03;4.95;;;;;;;7.30;74.51;94412.31;4199717;28;20490;-71
2024/03/07 06:46:25;;;;;;;6.38;5.25;;;;;;;7.29;74.07;94422.84;4199126;28;20502;-71
2024/03/07 06:48:28;;;;;;;5.65;4.65;;;;;;;7.04;73.58;94422.59;4211896;28;20054;-70
2024/03/07 06:50:30;;;;;;;8.35;5.07;;;;;;;6.69;74.51;94434.50;4205324;28;20414;-70
2024/03/07 06:52:39;;;;;;;5.90;4.95;;;;;;;6.66;75.48;94426.16;4208227;28;20360;-69
2024/03/07 06:54:41;;;;;;;6.88;4.95;;;;;;;6.81;75.91;94431.72;4207843;28;20133;-71
2024/03/07 06:56:43;;;;;;;6.93;5.05;;;;;;;7.02;76.14;94428.91;4204451;28;20136;-71
2024/03/07 06:58:48;;;;;;;6.30;5.00;;;;;;;7.21;75.72;94428.81;4187933;28;20056;-70
2024/03/07 07:00:53;;;;;;;6.15;5.28;;;;;;;7.24;74.34;94418.09;4207714;28;20187;-71
2024/03/07 07:02:55;;;;;;;5.97;4.97;;;;;;;7.22;73.72;94424.41;4207736;28;20504;-68
2024/03/07 07:04:57;;;;;;;7.30;5.38;;;;;;;7.21;73.98;94418.38;4178967;28;20072;-72
2024/03/07 07:07:00;;;;;;;7.05;6.07;;;;;;;7.17;74.14;94417.03;4196497;28;20056;-71
2024/03/07 07:09:05;;;;;;;8.50;5.53;;;;;;;7.29;74.49;94415.88;4206092;28;20055;-71
2024/03/07 07:11:07;;;;;;;7.10;5.53;;;;;;;7.45;74.46;94411.81;4208946;28;20131;-70
2024/03/07 07:13:10;;;;;;;7.28;5.72;;;;;;;7.65;74.75;94405.50;4204200;28;20079;-71
2024/03/07 07:15:16;;;;;;;11.00;7.00;;;;;;;7.85;74.17;94397.50;4203596;28;20134;-71
2024/03/07 07:17:19;;;;;;;6.88;5.47;;;;;;;7.98;72.92;94395.38;4188474;28;20083;-70
2024/03/07 07:19:22;;;;;;;7.72;5.65;;;;;;;8.09;72.75;94405.56;4206802;28;20135;-69
2024/03/07 07:21:24;;;;;;;6.57;5.30;;;;;;;8.24;72.49;94408.44;4205852;28;20079;-72
2024/03/07 07:23:26;;;;;;;6.57;5.45;;;;;;;8.36;72.18;94411.63;4198393;28;20053;-68
2024/03/07 07:25:28;;;;;;;7.43;6.00;;;;;;;8.38;70.48;94413.09;4205199;28;20048;-70
2024/03/07 07:27:32;;;;;;;6.72;5.50;;;;;;;8.25;70.60;94406.66;4174921;28;20052;-70
2024/03/07 07:29:34;;;;;;;9.02;5.93;;;;;;;7.71;71.37;94410.09;4196932;28;20052;-70
2024/03/07 07:31:36;;;;;;;7.57;5.80;;;;;;;7.29;72.59;94409.84;4202266;28;20054;-69
2024/03/07 07:33:38;;;;;;;6.88;5.55;;;;;;;7.32;73.26;94405.16;4192417;28;20052;-72
2024/03/07 07:35:40;;;;;;;8.25;5.45;;;;;;;7.45;73.12;94417.03;4218992;28;20641;-70
2024/03/07 07:37:48;;;;;;;6.53;5.20;;;;;;;7.71;73.59;94406.69;4216021;28;20205;-70
2024/03/07 07:39:51;;;;;;;5.72;4.65;;;;;;;7.95;72.83;94401.69;4186644;28;20274;-69
2024/03/07 07:41:53;;;;;;;5.53;4.63;;;;;;;8.07;71.64;94398.88;4197314;28;20085;-70
2024/03/07 07:43:56;;;;;;;5.30;4.55;;;;;;;8.18;71.85;94402.03;4203731;28;20645;-70
2024/03/07 07:45:59;;;;;;;4.73;4.07;;;;;;;8.34;71.64;94397.91;4199000;28;20143;-70
2024/03/07 07:48:01;;;;;;;6.90;4.45;;;;;;;8.42;70.89;94400.59;4205862;28;20460;-70
2024/03/07 07:50:06;;;;;;;6.90;5.22;;;;;;;8.43;70.25;94398.81;4213337;28;20044;-70
2024/03/07 07:52:09;;;;;;;6.82;5.50;;;;;;;8.45;69.91;94397.66;4198047;28;20051;-68
2024/03/07 07:54:11;;;;;;;9.85;4.95;;;;;;;8.44;70.33;94396.06;4181419;28;20044;-68
2024/03/07 07:56:12;;;;;;;5.30;4.50;;;;;;;8.50;69.41;94399.84;4209457;28;20051;-73
2024/03/07 07:58:14;;;;;;;4.78;4.18;;;;;;;8.54;69.95;94412.44;4207751;28;20151;-71
2024/03/07 08:00:23;;;;;;;5.40;4.15;;;;;;;8.61;69.89;94408.22;4202270;28;20484;-68
2024/03/07 08:02:27;;;;;;;4.93;4.07;;;;;;;8.70;70.27;94403.88;4200340;28;20535;-69
2024/03/07 08:04:30;;;;;;;4.65;3.90;;;;;;;8.77;70.38;94406.69;4190072;28;20044;-71
2024/03/07 08:06:32;;;;;;;5.32;4.10;;;;;;;8.87;69.38;94415.22;4212357;28;20048;-72
2024/03/07 08:08:34;;;;;;;5.35;4.75;;;;;;;8.95;69.41;94406.63;4208983;28;20462;-71
2024/03/07 08:10:37;;;;;;;9.85;4.82;;;;;;;8.99;68.37;94421.00;4209131;28;20060;-70
2024/03/07 08:12:43;;;;;;;5.88;4.93;;;;;;;8.91;68.25;94419.19;4207010;28;20087;-70
2024/03/07 08:14:45;;;;;;;7.30;5.68;;;;;;;8.58;68.03;94418.16;4206937;28;20055;-69
2024/03/07 08:16:51;;;;;;;9.90;7.60;;;;;;;8.29;69.05;94421.84;4195661;28;20097;-72
2024/03/07 08:18:53;;;;;;;8.70;5.63;;;;;;;8.15;69.71;94425.84;4206965;28;20204;-70
2024/03/07 08:20:55;;;;;;;19.25;11.07;;;;;;;7.85;70.40;94426.19;4198024;28;20048;-69
2024/03/07 08:22:59;;;;;;;19.02;12.05;;;;;;;7.80;70.94;94430.06;4195070;28;20040;-70
2024/03/07 08:25:01;;;;;;;23.65;13.25;;;;;;;7.74;71.13;94430.69;4197877;28;20078;-71
2024/03/07 08:27:03;;;;;;;9.00;6.60;;;;;;;7.63;71.69;94437.88;4202752;28;20090;-71
2024/03/07 08:29:05;;;;;;;6.50;5.50;;;;;;;7.65;72.57;94435.97;4208835;28;20139;-70
2024/03/07 08:31:09;;;;;;;17.55;8.38;;;;;;;7.80;71.94;94443.09;4201558;28;20036;-71
2024/03/07 08:33:12;;;;;;;15.88;9.52;;;;;;;7.85;71.17;94447.91;4202555;28;20563;-71
2024/03/07 08:35:15;;;;;;;8.65;6.93;;;;;;;7.86;71.41;94439.09;4207226;28;20105;-72
2024/03/07 08:37:17;;;;;;;11.13;7.38;;;;;;;7.98;71.17;94444.94;4210393;28;20498;-70
2024/03/07 08:39:19;;;;;;;8.55;6.63;;;;;;;8.05;71.61;94445.97;4202736;28;20048;-69
2024/03/07 08:41:21;;;;;;;7.70;5.63;;;;;;;8.23;71.07;94452.97;4202123;28;20127;-70
2024/03/07 08:43:23;;;;;;;17.33;9.27;;;;;;;8.15;70.67;94457.16;4198445;28;20633;-70
2024/03/07 08:45:28;;;;;;;10.98;7.88;;;;;;;8.03;70.78;94453.13;4215236;28;20124;-70
2024/03/07 08:47:31;;;;;;;9.98;7.28;;;;;;;7.91;70.80;94457.72;4189659;28;20563;-70
2024/03/07 08:49:32;;;;;;;10.07;8.00;;;;;;;7.95;71.59;94461.66;4204170;28;20113;-72
2024/03/07 08:51:34;;;;;;;11.88;8.18;;;;;;;8.02;71.53;94461.09;4201901;28;20055;-69
2024/03/07 08:53:36;;;;;;;7.65;5.95;;;;;;;8.04;71.83;94467.78;4201871;28;20106;-71
2024/03/07 08:55:38;;;;;;;5.65;5.05;;;;;;;8.12;71.02;94465.25;4202411;28;20075;-71
2024/03/07 08:57:41;;;;;;;6.88;5.15;;;;;;;8.24;70.38;94465.88;4208318;28;20048;-70
2024/03/07 08:59:43;;;;;;;6.57;5.40;;;;;;;8.45;70.86;94465.53;4215297;28;20126;-70
2024/03/07 09:01:45;;;;;;;6.35;5.55;;;;;;;8.60;69.85;94461.44;4196805;28;20087;-70
2024/03/07 09:03:48;;;;;;;6.80;5.40;;;;;;;8.58;68.53;94463.38;4197023;28;20535;-71
2024/03/07 09:05:52;;;;;;;7.75;6.25;;;;;;;8.59;68.66;94466.81;4201220;28;20487;-71
2024/03/07 09:07:54;;;;;;;6.13;4.97;;;;;;;8.55;69.04;94462.84;4208097;28;20051;-71
2024/03/07 09:09:57;;;;;;;5.72;5.13;;;;;;;8.48;68.92;94464.44;4196804;28;20048;-71
2024/03/07 09:12:01;;;;;;;5.72;5.00;;;;;;;8.40;69.73;94468.63;4203676;28;20645;-70
2024/03/07 09:14:09;;;;;;;7.57;5.05;;;;;;;8.36;69.41;94464.63;4206856;28;20155;-70
2024/03/07 09:16:12;;;;;;;5.75;5.13;;;;;;;8.09;70.58;94468.19;4206710;28;20116;-70
2024/03/07 09:18:14;;;;;;;5.03;4.43;;;;;;;8.09;70.80;94468.19;4206765;28;20165;-72
2024/03/07 09:20:18;;;;;;;7.13;4.65;;;;;;;8.24;70.53;94472.84;4213305;28;20051;-70
2024/03/07 09:22:22;;;;;;;6.75;4.95;;;;;;;8.40;69.82;94467.78;4209531;28;20050;-72
2024/03/07 09:24:24;;;;;;;5.97;4.70;;;;;;;8.53;69.53;94468.22;4176127;28;20056;-71
2024/03/07 09:26:26;;;;;;;4.93;4.20;;;;;;;8.66;68.84;94472.22;4196830;28;20490;-72
2024/03/07 09:28:28;;;;;;;5.80;4.38;;;;;;;8.79;68.43;94475.25;4209476;28;20508;-70
2024/03/07 09:30:31;;;;;;;7.15;4.85;;;;;;;8.87;68.08;94469.28;4209827;28;20101;-71
2024/03/07 09:32:34;;;;;;;4.80;4.30;;;;;;;8.76;68.01;94470.34;4199941;28;20480;-69
2024/03/07 09:34:36;;;;;;;7.10;4.72;;;;;;;8.64;67.92;94472.38;4208967;28;20522;-70
2024/03/07 09:36:40;;;;;;;5.53;4.90;;;;;;;8.52;69.44;94469.22;4197626;28;20647;-71
2024/03/07 09:38:42;;;;;;;6.47;5.50;;;;;;;8.49;69.39;94477.31;4197506;28;20127;-69
2024/03/07 09:40:46;;;;;;;7.65;5.07;;;;;;;8.29;69.22;94474.03;4207340;28;20117;-68
2024/03/07 09:42:52;;;;;;;8.10;5.13;;;;;;;7.92;70.35;94469.81;4201975;28;20559;-71